Time;durP1;ratioP1;P1;durP2;ratioP2;P2;SDS_P1;SDS_P2;PMS_P1;PMS_P2;Temp;Humidity;BMP_temperature;BMP_pressure;BME280_temperature;BME280_humidity;BME280_pressure;Samples;Min_cycle;Max_cycle;Signal;HPM_P1;HPM_P2
2022/11/18 00:35:18;;;;;;;28.43;15.57;;;;;;;-4.30;100.00;99024.48;1783437;77;85702;-67
2022/11/18 00:37:44;;;;;;;26.13;15.03;;;;;;;-4.31;100.00;99024.92;1692709;84;21026;-67
2022/11/18 00:40:12;;;;;;;22.37;12.53;;;;;;;-4.23;100.00;99020.69;1689013;84;21140;-68
2022/11/18 00:42:50;;;;;;;24.52;12.63;;;;;;;-4.08;100.00;99016.02;1691571;84;21043;-68
2022/11/18 00:45:20;;;;;;;18.77;11.00;;;;;;;-3.99;100.00;99015.20;1682883;84;21153;-67
2022/11/18 00:47:46;;;;;;;18.73;10.55;;;;;;;-3.95;100.00;99016.09;1684313;84;21228;-68
2022/11/18 00:50:13;;;;;;;17.55;10.58;;;;;;;-3.85;100.00;99019.11;1688391;84;21141;-68
2022/11/18 00:52:39;;;;;;;20.77;11.20;;;;;;;-3.78;100.00;99016.98;1683428;84;21167;-68
2022/11/18 00:55:08;;;;;;;20.57;11.10;;;;;;;-3.67;100.00;99017.87;1684647;84;21051;-69
2022/11/18 00:57:34;;;;;;;20.75;11.28;;;;;;;-3.58;100.00;99014.47;1694574;84;21078;-68
2022/11/18 01:00:01;;;;;;;20.35;11.93;;;;;;;-3.52;100.00;99012.32;1692623;84;21410;-69
2022/11/18 01:02:27;;;;;;;20.30;11.10;;;;;;;-3.48;100.00;99011.04;1686335;84;21550;-69
2022/11/18 01:04:54;;;;;;;14.47;9.18;;;;;;;-3.44;100.00;99011.92;1684655;84;21153;-70
2022/11/18 01:07:21;;;;;;;19.60;10.45;;;;;;;-3.41;100.00;99011.91;1680984;84;21061;-68
2022/11/18 01:09:47;;;;;;;20.52;11.08;;;;;;;-3.38;100.00;99011.94;1706932;84;21058;-70
2022/11/18 01:14:58;;;;;;;19.12;11.50;;;;;;;-3.35;100.00;99011.08;1690239;84;21036;-68
2022/11/18 01:17:25;;;;;;;18.45;10.90;;;;;;;-3.27;100.00;99016.64;1699709;84;21194;-70
2022/11/18 01:19:51;;;;;;;21.23;11.05;;;;;;;-3.25;100.00;99013.64;1687352;84;21069;-68
2022/11/18 01:22:17;;;;;;;17.52;10.58;;;;;;;-3.30;100.00;99016.65;1663960;84;21149;-69
2022/11/18 01:24:44;;;;;;;20.50;11.70;;;;;;;-3.29;100.00;99017.50;1677712;84;21518;-68
2022/11/18 01:27:11;;;;;;;20.32;11.50;;;;;;;-3.29;100.00;99017.09;1680335;84;21046;-68
2022/11/18 01:29:39;;;;;;;17.98;9.88;;;;;;;-3.28;100.00;99017.52;1665409;84;21226;-69
2022/11/18 01:32:06;;;;;;;19.67;10.28;;;;;;;-3.28;100.00;99016.22;1672401;84;21124;-68
2022/11/18 01:34:33;;;;;;;21.65;11.85;;;;;;;-3.26;100.00;99017.09;1664867;84;21608;-68
2022/11/18 01:36:59;;;;;;;19.55;10.85;;;;;;;-3.28;100.00;99013.65;1696290;83;21086;-69
2022/11/18 01:39:25;;;;;;;21.87;11.05;;;;;;;-3.30;100.00;99016.65;1710637;83;21598;-68
2022/11/18 01:41:52;;;;;;;20.55;11.30;;;;;;;-3.27;100.00;99008.91;1711664;83;21347;-68
2022/11/18 01:45:08;;;;;;;24.65;12.68;;;;;;;-3.28;100.00;99020.52;1698351;83;21590;-67
2022/11/18 01:47:43;;;;;;;19.87;11.80;;;;;;;-3.30;100.00;99020.51;1707691;83;21517;-69
2022/11/18 01:50:12;;;;;;;17.10;11.22;;;;;;;-3.28;100.00;99014.94;1715450;83;21674;-69
2022/11/18 01:52:39;;;;;;;21.37;11.50;;;;;;;-3.24;100.00;99016.66;1715772;83;21123;-68
2022/11/18 01:55:11;;;;;;;21.07;11.20;;;;;;;-3.21;100.00;99015.80;1690416;83;21150;-69
2022/11/18 01:57:38;;;;;;;22.22;11.22;;;;;;;-3.17;100.00;99019.67;1713262;83;21096;-68
2022/11/18 02:00:07;;;;;;;21.05;12.40;;;;;;;-3.18;100.00;99020.50;1708196;83;21094;-68
2022/11/18 02:02:36;;;;;;;16.87;9.05;;;;;;;-3.13;100.00;99027.38;1694430;83;21152;-68
2022/11/18 02:05:04;;;;;;;17.80;10.82;;;;;;;-3.09;100.00;99026.09;1691999;84;21093;-69
2022/11/18 02:07:34;;;;;;;15.25;9.33;;;;;;;-3.05;100.00;99030.84;1675901;84;21228;-69
2022/11/18 02:10:05;;;;;;;18.27;10.05;;;;;;;-3.03;100.00;99029.12;1691317;84;21062;-67
2022/11/18 02:12:32;;;;;;;16.80;10.15;;;;;;;-2.97;100.00;99023.55;1689546;84;21064;-69
2022/11/18 02:14:59;;;;;;;18.77;10.13;;;;;;;-2.91;100.00;99029.11;1690117;84;21374;-67
2022/11/18 02:17:49;;;;;;;16.55;9.73;;;;;;;-2.89;100.00;99028.68;1677285;84;21129;-67
2022/11/18 02:20:32;;;;;;;17.87;10.23;;;;;;;-2.89;100.00;99027.39;1703752;83;21252;-69
2022/11/18 02:23:22;;;;;;;17.52;8.85;;;;;;;-2.95;100.00;99026.95;1701901;83;21029;-68
2022/11/18 02:26:33;;;;;;;18.20;10.70;;;;;;;-2.95;100.00;99035.11;1698316;83;21085;-69
2022/11/18 02:29:13;;;;;;;18.55;10.23;;;;;;;-2.95;100.00;99033.83;1635032;86;21121;-67
2022/11/18 02:32:03;;;;;;;18.48;9.63;;;;;;;-2.96;100.00;99030.84;1632219;86;22440;-68
2022/11/18 02:34:58;;;;;;;16.67;10.20;;;;;;;-2.96;100.00;99030.84;1672500;84;21216;-67
2022/11/18 02:37:45;;;;;;;16.10;10.32;;;;;;;-2.90;100.00;99029.52;1685818;84;21024;-69
2022/11/18 02:40:25;;;;;;;18.90;10.32;;;;;;;-2.93;100.00;99026.95;1690833;83;21048;-68
2022/11/18 02:43:09;;;;;;;13.48;8.68;;;;;;;-2.89;100.00;99027.83;1703783;83;24542;-68
2022/11/18 02:45:37;;;;;;;18.70;10.20;;;;;;;-2.92;100.00;99028.70;1708772;83;21060;-68
2022/11/18 02:48:08;;;;;;;19.90;10.82;;;;;;;-2.92;100.00;99031.27;1700876;83;21106;-68
2022/11/18 02:50:34;;;;;;;15.58;9.73;;;;;;;-2.93;100.00;99035.97;1716964;83;21092;-68
2022/11/18 02:53:03;;;;;;;18.50;10.53;;;;;;;-2.95;100.00;99040.27;1709459;83;21183;-67
2022/11/18 02:55:32;;;;;;;22.02;10.93;;;;;;;-2.93;100.00;99041.13;1705444;83;21116;-68
2022/11/18 02:57:59;;;;;;;19.30;10.48;;;;;;;-2.91;100.00;99043.28;1708387;83;21544;-69
2022/11/18 03:00:26;;;;;;;17.80;9.63;;;;;;;-2.94;100.00;99039.42;1709525;83;21146;-67
2022/11/18 03:02:52;;;;;;;17.75;9.50;;;;;;;-2.94;100.00;99039.42;1664477;85;21125;-67
2022/11/18 03:05:48;;;;;;;18.95;10.30;;;;;;;-2.99;100.00;99046.27;1685691;84;21120;-67
2022/11/18 03:08:20;;;;;;;14.55;9.65;;;;;;;-3.01;100.00;99047.58;1714406;83;20997;-67
2022/11/18 03:11:14;;;;;;;12.80;7.85;;;;;;;-2.99;100.00;99048.84;1718546;83;21146;-68
2022/11/18 03:14:13;;;;;;;15.83;9.68;;;;;;;-2.99;100.00;99052.71;1715517;83;21246;-68
2022/11/18 03:16:57;;;;;;;15.58;9.50;;;;;;;-2.97;100.00;99047.13;1698986;83;21657;-68
2022/11/18 03:19:35;;;;;;;15.78;8.43;;;;;;;-2.95;100.00;99044.12;1693847;83;21069;-68
2022/11/18 03:22:24;;;;;;;13.22;8.58;;;;;;;-2.98;100.00;99051.43;1706831;83;21595;-68
2022/11/18 03:24:59;;;;;;;16.00;8.33;;;;;;;-2.93;100.00;99057.88;1707926;83;21125;-67
2022/11/18 03:27:36;;;;;;;12.28;8.45;;;;;;;-2.97;100.00;99048.02;1707135;83;21322;-69
2022/11/18 03:30:09;;;;;;;19.25;8.70;;;;;;;-2.99;100.00;99048.84;1690329;83;21054;-68
2022/11/18 03:32:39;;;;;;;16.30;10.25;;;;;;;-2.97;100.00;99047.13;1715303;83;21044;-69
2022/11/18 03:35:09;;;;;;;17.27;9.10;;;;;;;-2.98;100.00;99043.70;1692374;83;22299;-69
2022/11/18 03:37:36;;;;;;;14.47;9.18;;;;;;;-2.97;100.00;99036.83;1696114;83;21088;-68
2022/11/18 03:40:20;;;;;;;13.20;8.20;;;;;;;-2.93;100.00;99046.28;1700304;83;21535;-68
2022/11/18 03:42:51;;;;;;;13.90;8.33;;;;;;;-2.94;100.00;99039.42;1716564;83;21071;-67
2022/11/18 03:45:25;;;;;;;16.00;9.55;;;;;;;-2.89;100.00;99042.00;1696872;83;21061;-68
2022/11/18 03:47:57;;;;;;;12.88;7.37;;;;;;;-2.84;100.00;99050.58;1715211;83;21035;-67
2022/11/18 03:50:33;;;;;;;18.65;10.55;;;;;;;-2.80;100.00;99053.16;1705505;83;21234;-69
2022/11/18 03:53:00;;;;;;;18.02;10.25;;;;;;;-2.76;100.00;99060.03;1690056;83;21210;-68
2022/11/18 03:55:32;;;;;;;15.75;8.28;;;;;;;-2.72;100.00;99062.59;1702201;83;21669;-68
2022/11/18 03:58:16;;;;;;;15.35;9.13;;;;;;;-2.81;100.00;99063.02;1705768;83;21085;-67
2022/11/18 04:00:45;;;;;;;18.00;8.90;;;;;;;-2.81;100.00;99072.03;1702097;83;21116;-67
2022/11/18 04:03:11;;;;;;;15.15;8.58;;;;;;;-2.83;100.00;99067.34;1676341;84;21016;-68
2022/11/18 04:05:41;;;;;;;14.03;8.33;;;;;;;-2.87;100.00;99070.77;1684563;84;21246;-68
2022/11/18 04:08:18;;;;;;;17.90;8.05;;;;;;;-2.88;100.00;99070.32;1679542;84;21188;-67
2022/11/18 04:10:53;;;;;;;16.12;7.92;;;;;;;-2.89;100.00;99072.48;1680339;84;21108;-68
2022/11/18 04:13:32;;;;;;;13.60;7.58;;;;;;;-2.93;100.00;99077.20;1676546;84;21068;-68
2022/11/18 04:15:58;;;;;;;15.78;8.33;;;;;;;-2.95;100.00;99078.91;1687241;83;21123;-68
2022/11/18 04:18:25;;;;;;;19.02;8.73;;;;;;;-3.00;100.00;99072.90;1655534;84;21195;-68
2022/11/18 04:20:52;;;;;;;14.47;8.20;;;;;;;-2.99;100.00;99072.91;1686762;84;21072;-68
2022/11/18 04:23:19;;;;;;;12.78;8.30;;;;;;;-3.01;100.00;99068.63;1681547;84;21025;-69
2022/11/18 04:25:45;;;;;;;15.43;8.38;;;;;;;-3.00;100.00;99076.77;1675084;83;21107;-67
2022/11/18 04:28:13;;;;;;;13.05;8.60;;;;;;;-2.99;100.00;99072.03;1697423;83;21060;-68
2022/11/18 04:30:40;;;;;;;12.50;7.72;;;;;;;-3.03;100.00;99076.77;1713916;83;21870;-69
2022/11/18 04:33:08;;;;;;;14.75;8.78;;;;;;;-3.01;100.00;99071.20;1704198;83;21058;-69
2022/11/18 04:35:36;;;;;;;13.18;7.55;;;;;;;-2.99;100.00;99077.18;1702647;83;21046;-69
2022/11/18 04:38:02;;;;;;;15.63;7.95;;;;;;;-2.96;100.00;99077.20;1708733;83;21053;-69
2022/11/18 04:40:30;;;;;;;12.73;8.53;;;;;;;-2.91;100.00;99070.33;1704979;83;21100;-69
2022/11/18 04:42:56;;;;;;;13.13;7.25;;;;;;;-2.88;100.00;99072.89;1712132;83;21146;-68
2022/11/18 04:45:23;;;;;;;14.50;8.05;;;;;;;-2.88;100.00;99079.34;1707936;83;21577;-67
2022/11/18 04:47:49;;;;;;;12.68;8.25;;;;;;;-2.86;100.00;99086.64;1717297;83;21048;-67
2022/11/18 04:50:16;;;;;;;15.20;8.00;;;;;;;-2.85;100.00;99088.38;1704947;83;21125;-68
2022/11/18 04:52:44;;;;;;;13.95;8.83;;;;;;;-2.83;100.00;99096.97;1704265;83;21026;-69
2022/11/18 04:55:11;;;;;;;13.05;7.45;;;;;;;-2.79;100.00;99096.09;1710803;83;21144;-68
2022/11/18 04:57:37;;;;;;;14.73;8.50;;;;;;;-2.80;100.00;99099.53;1693727;83;21112;-68
2022/11/18 05:00:07;;;;;;;13.13;7.50;;;;;;;-2.77;100.00;99100.81;1710317;83;21526;-69
2022/11/18 05:02:34;;;;;;;16.07;9.05;;;;;;;-2.75;100.00;99102.97;1697428;83;21640;-70
2022/11/18 05:05:00;;;;;;;13.72;8.75;;;;;;;-2.70;100.00;99102.97;1673271;84;21531;-68
2022/11/18 05:07:26;;;;;;;18.10;9.18;;;;;;;-2.64;100.00;99112.00;1699730;83;21767;-69
2022/11/18 05:09:54;;;;;;;14.33;9.10;;;;;;;-2.59;100.00;99113.28;1706985;83;21183;-69
2022/11/18 05:15:08;;;;;;;12.63;7.72;;;;;;;-2.52;100.00;99129.17;1704104;83;21356;-68
2022/11/18 05:17:35;;;;;;;14.90;9.13;;;;;;;-2.52;100.00;99125.31;1703388;83;21127;-68
2022/11/18 05:20:02;;;;;;;11.75;7.40;;;;;;;-2.52;100.00;99127.03;1704545;83;22216;-69
2022/11/18 05:22:29;;;;;;;15.70;9.28;;;;;;;-2.53;100.00;99130.05;1676596;84;21530;-68
2022/11/18 05:24:56;;;;;;;17.98;10.20;;;;;;;-2.52;100.00;99134.77;1690998;84;21581;-69
2022/11/18 05:27:22;;;;;;;12.28;8.13;;;;;;;-2.52;100.00;99131.75;1690756;84;21584;-67
2022/11/18 05:29:49;;;;;;;21.48;11.40;;;;;;;-2.54;100.00;99133.47;1691391;84;21037;-69
2022/11/18 05:32:15;;;;;;;17.48;9.70;;;;;;;-2.47;100.00;99136.91;1674437;84;21307;-68
2022/11/18 05:34:42;;;;;;;17.02;10.43;;;;;;;-2.48;100.00;99139.92;1713214;83;21027;-68
2022/11/18 05:37:08;;;;;;;16.35;10.40;;;;;;;-2.46;100.00;99143.36;1707324;83;21059;-69
2022/11/18 05:39:36;;;;;;;17.95;10.58;;;;;;;-2.49;100.00;99133.03;1704075;83;21651;-67
2022/11/18 05:44:49;;;;;;;21.82;10.82;;;;;;;-2.45;100.00;99141.20;1705183;83;21155;-69
2022/11/18 05:47:19;;;;;;;18.85;9.73;;;;;;;-2.48;100.00;99142.50;1706056;83;21081;-68
2022/11/18 05:49:46;;;;;;;23.80;12.90;;;;;;;-2.51;100.00;99150.22;1703433;83;21183;-68
2022/11/18 05:52:13;;;;;;;20.40;11.63;;;;;;;-2.52;100.00;99149.80;1703611;83;21656;-69
2022/11/18 05:54:43;;;;;;;20.27;11.53;;;;;;;-2.63;100.00;99148.94;1712510;83;21135;-69
2022/11/18 05:57:09;;;;;;;24.82;13.75;;;;;;;-2.65;100.00;99150.22;1708485;83;21105;-69
2022/11/18 05:59:36;;;;;;;22.15;12.90;;;;;;;-2.63;100.00;99151.52;1702612;83;21076;-69
2022/11/18 06:02:07;;;;;;;24.27;12.35;;;;;;;-2.66;100.00;99151.52;1697868;83;21076;-69
2022/11/18 06:04:55;;;;;;;25.35;13.05;;;;;;;-2.62;100.00;99155.83;1714743;83;22045;-68
2022/11/18 06:07:30;;;;;;;22.52;12.82;;;;;;;-2.58;100.00;99160.09;1705295;83;21587;-69
2022/11/18 06:09:58;;;;;;;23.98;11.33;;;;;;;-2.53;100.00;99168.72;1704896;83;21136;-69
2022/11/18 06:12:28;;;;;;;21.50;12.23;;;;;;;-2.56;100.00;99164.39;1708849;83;21072;-71
2022/11/18 06:15:00;;;;;;;19.77;10.28;;;;;;;-2.56;100.00;99168.70;1716340;83;21064;-69
2022/11/18 06:17:34;;;;;;;41.48;23.10;;;;;;;-2.57;100.00;99163.13;1695069;83;21567;-68
2022/11/18 06:20:01;;;;;;;71.77;40.10;;;;;;;-2.51;100.00;99176.00;1692921;83;21108;-69
2022/11/18 06:22:29;;;;;;;42.17;23.18;;;;;;;-2.50;100.00;99177.73;1697454;83;21092;-68
2022/11/18 06:24:56;;;;;;;338.65;158.00;;;;;;;-2.47;100.00;99177.73;1705477;83;21052;-69
2022/11/18 06:27:22;;;;;;;45.85;24.12;;;;;;;-2.43;100.00;99178.60;1712716;83;21109;-69
2022/11/18 06:29:49;;;;;;;152.68;66.15;;;;;;;-2.45;100.00;99178.59;1701770;83;21029;-69
2022/11/18 06:32:16;;;;;;;62.08;28.05;;;;;;;-2.50;100.00;99177.73;1717664;83;21081;-68
2022/11/18 06:34:42;;;;;;;110.17;36.83;;;;;;;-2.51;100.00;99177.28;1715311;83;21875;-69
2022/11/18 06:37:16;;;;;;;121.40;37.35;;;;;;;-2.53;100.00;99177.74;1660907;85;21095;-68
2022/11/18 06:39:43;;;;;;;80.15;27.37;;;;;;;-2.54;100.00;99182.02;1675026;85;21184;-69
2022/11/18 06:42:10;;;;;;;36.73;20.12;;;;;;;-2.52;100.00;99188.47;1675202;85;21141;-67
2022/11/18 06:44:36;;;;;;;26.42;14.25;;;;;;;-2.51;100.00;99190.61;1670166;85;21146;-68
2022/11/18 06:47:04;;;;;;;49.05;16.37;;;;;;;-2.49;100.00;99188.90;1672665;85;21196;-69
2022/11/18 06:49:31;;;;;;;63.15;20.40;;;;;;;-2.51;100.00;99191.90;1673451;85;21467;-69
2022/11/18 06:51:57;;;;;;;50.45;18.90;;;;;;;-2.39;100.00;99191.93;1671430;85;20995;-68
2022/11/18 06:54:24;;;;;;;85.95;23.70;;;;;;;-2.35;100.00;99199.66;1675767;85;21036;-68
2022/11/18 06:56:50;;;;;;;28.62;13.83;;;;;;;-2.31;100.00;99199.22;1679718;85;21069;-68
2022/11/18 06:59:22;;;;;;;42.25;15.55;;;;;;;-2.33;100.00;99201.78;1678376;85;21244;-68
2022/11/18 07:01:46;;;;;;;38.70;15.32;;;;;;;-2.35;100.00;99200.06;1666592;86;21045;-68
2022/11/18 07:04:12;;;;;;;24.45;12.35;;;;;;;-2.36;100.00;99205.66;1692009;84;21056;-69
2022/11/18 07:06:39;;;;;;;27.25;14.85;;;;;;;-2.37;100.00;99207.83;1675488;84;21068;-68
2022/11/18 07:09:06;;;;;;;23.83;12.55;;;;;;;-2.30;100.00;99209.09;1705050;83;21203;-68
2022/11/18 07:11:33;;;;;;;21.55;12.63;;;;;;;-2.30;100.00;99207.80;1680658;84;21207;-68
2022/11/18 07:14:00;;;;;;;37.30;15.38;;;;;;;-2.36;100.00;99200.94;1709708;83;22116;-68
2022/11/18 07:16:27;;;;;;;25.48;13.38;;;;;;;-2.43;100.00;99203.95;1682831;84;21552;-67
2022/11/18 07:18:54;;;;;;;27.58;14.58;;;;;;;-2.40;100.00;99206.95;1713484;83;20989;-70
2022/11/18 07:21:24;;;;;;;29.72;14.10;;;;;;;-2.37;100.00;99209.52;1710671;83;21086;-70
2022/11/18 07:23:51;;;;;;;24.67;13.22;;;;;;;-2.38;100.00;99213.83;1703126;83;21226;-69
2022/11/18 07:26:18;;;;;;;26.68;13.03;;;;;;;-2.40;100.00;99212.96;1720239;83;21067;-69
2022/11/18 07:28:45;;;;;;;39.78;15.43;;;;;;;-2.46;100.00;99214.27;1719996;83;21028;-68
2022/11/18 07:31:14;;;;;;;34.08;12.60;;;;;;;-2.47;100.00;99213.82;1718825;83;20988;-70
2022/11/18 07:33:42;;;;;;;77.85;23.07;;;;;;;-2.47;100.00;99214.25;1701308;83;21169;-68
2022/11/18 07:36:11;;;;;;;59.05;19.92;;;;;;;-2.46;100.00;99220.72;1700231;83;21661;-68
2022/11/18 07:38:40;;;;;;;34.88;13.48;;;;;;;-2.38;100.00;99228.45;1705948;83;22125;-68
2022/11/18 07:41:15;;;;;;;21.37;10.63;;;;;;;-2.35;100.00;99233.59;1695340;83;21039;-69
2022/11/18 07:43:42;;;;;;;29.37;13.48;;;;;;;-2.29;100.00;99232.76;1699401;83;21087;-68
2022/11/18 07:46:15;;;;;;;30.20;14.98;;;;;;;-2.34;100.00;99231.03;1708638;83;21155;-69
2022/11/18 07:48:47;;;;;;;36.83;18.35;;;;;;;-2.34;100.00;99225.88;1693871;83;21120;-68
2022/11/18 07:51:14;;;;;;;27.77;14.18;;;;;;;-2.30;100.00;99225.86;1690532;83;21064;-69
2022/11/18 07:53:42;;;;;;;33.15;14.07;;;;;;;-2.31;100.00;99235.33;1694145;83;21226;-69
2022/11/18 07:56:09;;;;;;;39.75;13.88;;;;;;;-2.30;100.00;99225.86;1708326;83;21593;-69
2022/11/18 07:58:36;;;;;;;56.65;18.00;;;;;;;-2.23;100.00;99232.73;1704986;83;21083;-69
2022/11/18 08:01:13;;;;;;;53.45;17.52;;;;;;;-2.21;100.00;99232.31;1711113;83;21645;-69
2022/11/18 08:03:41;;;;;;;39.10;16.87;;;;;;;-2.21;100.00;99234.89;1692212;83;21081;-69
2022/11/18 08:06:10;;;;;;;49.15;19.15;;;;;;;-2.23;100.00;99240.07;1696329;83;21642;-70
2022/11/18 08:08:37;;;;;;;35.65;16.12;;;;;;;-2.17;100.00;99239.20;1707362;83;21076;-68
2022/11/18 08:11:07;;;;;;;32.98;14.10;;;;;;;-2.13;100.00;99237.91;1705801;83;21605;-70
2022/11/18 08:13:35;;;;;;;51.13;17.15;;;;;;;-2.12;100.00;99237.06;1688184;83;21128;-69
2022/11/18 08:16:04;;;;;;;28.77;11.45;;;;;;;-2.09;100.00;99254.66;1692459;83;21624;-71
2022/11/18 08:18:31;;;;;;;31.35;13.93;;;;;;;-2.01;100.00;99257.68;1691607;83;21126;-70
2022/11/18 08:21:03;;;;;;;54.08;21.82;;;;;;;-1.84;100.00;99265.84;1705253;83;21092;-69
2022/11/18 08:23:30;;;;;;;44.75;19.05;;;;;;;-1.79;100.00;99266.28;1699121;83;21085;-70
2022/11/18 08:26:16;;;;;;;28.00;13.58;;;;;;;-1.79;100.00;99262.84;1708520;83;21114;-70
2022/11/18 08:28:42;;;;;;;24.12;13.20;;;;;;;-1.79;100.00;99266.28;1703272;83;21116;-70
2022/11/18 08:31:14;;;;;;;28.45;14.03;;;;;;;-1.78;100.00;99274.88;1698065;83;21649;-68
2022/11/18 08:33:42;;;;;;;75.70;22.25;;;;;;;-1.74;100.00;99284.34;1705817;83;21670;-69
2022/11/18 08:36:14;;;;;;;56.98;19.12;;;;;;;-1.63;100.00;99283.91;1718462;83;21506;-69
2022/11/18 08:38:42;;;;;;;44.48;14.40;;;;;;;-1.58;100.00;99285.19;1704864;83;21073;-72
2022/11/18 08:41:16;;;;;;;47.33;16.32;;;;;;;-1.63;100.00;99285.60;1693631;83;21572;-70
2022/11/18 08:43:43;;;;;;;45.50;16.05;;;;;;;-1.60;100.00;99292.92;1701012;83;21168;-71
2022/11/18 08:46:09;;;;;;;42.38;18.25;;;;;;;-1.60;100.00;99292.92;1715115;83;21124;-69
2022/11/18 08:48:36;;;;;;;64.00;26.75;;;;;;;-1.57;100.00;99294.20;1691841;83;21120;-70
2022/11/18 08:51:03;;;;;;;64.22;25.88;;;;;;;-1.49;100.00;99295.06;1715335;83;21219;-69
2022/11/18 08:53:31;;;;;;;47.00;18.48;;;;;;;-1.55;100.00;99302.81;1718324;83;21027;-70
2022/11/18 08:55:59;;;;;;;59.13;22.25;;;;;;;-1.58;100.00;99293.79;1704060;83;21118;-70
2022/11/18 08:58:26;;;;;;;66.00;29.42;;;;;;;-1.49;100.00;99292.92;1706000;83;21152;-69
2022/11/18 09:00:52;;;;;;;62.95;27.02;;;;;;;-1.40;100.00;99294.60;1699933;83;21027;-69
2022/11/18 09:03:19;;;;;;;30.52;16.12;;;;;;;-1.35;100.00;99292.89;1716539;83;21205;-70
2022/11/18 09:05:47;;;;;;;39.80;21.52;;;;;;;-1.35;100.00;99290.31;1705358;83;21044;-70
2022/11/18 09:08:14;;;;;;;37.70;19.25;;;;;;;-1.29;100.00;99286.40;1716402;83;21037;-70
2022/11/18 09:10:41;;;;;;;37.93;18.20;;;;;;;-1.16;100.00;99294.55;1713593;83;21183;-70
2022/11/18 09:13:08;;;;;;;25.57;13.55;;;;;;;-1.16;100.00;99298.42;1701963;83;21100;-70
2022/11/18 09:15:34;;;;;;;22.45;11.03;;;;;;;-1.10;100.00;99291.96;1701084;83;21206;-69
2022/11/18 09:18:01;;;;;;;20.20;11.65;;;;;;;-1.25;100.00;99292.43;1716227;83;21073;-70
2022/11/18 09:20:28;;;;;;;33.67;16.20;;;;;;;-1.31;100.00;99294.17;1694144;83;21032;-69
2022/11/18 09:22:55;;;;;;;34.83;17.23;;;;;;;-1.27;100.00;99288.55;1693933;83;21004;-69
2022/11/18 09:25:21;;;;;;;36.93;16.30;;;;;;;-1.34;100.00;99288.14;1694526;83;21548;-69
2022/11/18 09:27:51;;;;;;;31.62;14.53;;;;;;;-1.29;100.00;99296.33;1705749;83;21275;-69
2022/11/18 09:30:17;;;;;;;45.43;21.12;;;;;;;-1.32;100.00;99303.20;1717655;83;21040;-69
2022/11/18 09:32:45;;;;;;;37.20;18.35;;;;;;;-1.34;100.00;99310.09;1705697;83;21103;-69
2022/11/18 09:35:12;;;;;;;28.57;14.28;;;;;;;-1.36;100.00;99304.07;1717287;83;21037;-70
2022/11/18 09:37:39;;;;;;;62.75;27.30;;;;;;;-1.36;100.00;99301.49;1715932;83;21095;-70
2022/11/18 09:40:10;;;;;;;30.62;15.28;;;;;;;-1.31;100.00;99310.11;1701356;83;22060;-70
2022/11/18 09:42:45;;;;;;;24.07;12.90;;;;;;;-1.32;100.00;99310.96;1689266;83;21057;-69
2022/11/18 09:45:29;;;;;;;38.10;16.45;;;;;;;-1.33;100.00;99315.27;1707076;83;21105;-70
2022/11/18 09:47:58;;;;;;;33.58;15.90;;;;;;;-1.25;100.00;99316.98;1707887;83;21298;-69
2022/11/18 09:50:24;;;;;;;20.72;12.43;;;;;;;-1.16;100.00;99307.47;1715050;83;21036;-68
2022/11/18 09:53:18;;;;;;;24.92;11.88;;;;;;;-1.14;100.00;99315.23;1695677;83;22023;-69
2022/11/18 09:55:45;;;;;;;20.88;11.60;;;;;;;-1.18;100.00;99308.34;1693797;83;21036;-69
2022/11/18 09:58:32;;;;;;;22.40;10.63;;;;;;;-1.12;100.00;99314.36;1712190;83;22499;-70
2022/11/18 10:00:59;;;;;;;22.75;11.57;;;;;;;-1.08;100.00;99310.91;1715354;83;21061;-71
2022/11/18 16:09:16;;;;;;;42.83;21.37;;;;;;;-2.97;100.00;99385.90;1875425;75;24056;-94
2022/11/18 16:15:47;;;;;;;35.80;17.40;;;;;;;-2.90;100.00;99391.52;1781131;76;21493;-94
2022/11/18 16:18:22;;;;;;;40.83;20.37;;;;;;;-2.79;100.00;99400.61;1752694;79;20942;-93
2022/11/18 16:20:59;;;;;;;40.30;18.95;;;;;;;-2.66;100.00;99397.67;1767977;77;20957;-93
2022/11/18 16:23:27;;;;;;;33.48;16.67;;;;;;;-2.59;100.00;99395.55;1735621;77;83533;-66
2022/11/18 16:25:54;;;;;;;33.30;15.63;;;;;;;-2.51;100.00;99401.59;1674630;85;21092;-66
2022/11/18 16:28:24;;;;;;;58.70;22.50;;;;;;;-2.43;100.00;99402.92;1665935;85;21495;-66
2022/11/18 16:33:37;;;;;;;35.90;19.50;;;;;;;-2.35;100.00;99407.27;1665198;85;20189;-66
2022/11/18 16:36:06;;;;;;;41.13;18.17;;;;;;;-2.30;100.00;99415.42;1665468;85;21114;-67
2022/11/18 16:38:33;;;;;;;38.33;19.37;;;;;;;-2.24;100.00;99417.59;1663689;85;21100;-66
2022/11/18 16:41:30;;;;;;;32.90;17.32;;;;;;;-2.18;100.00;99411.61;1668857;85;21356;-65
2022/11/18 16:43:34;;;;;;;59.67;22.90;;;;;;;-2.17;100.00;99410.73;1653478;84;21205;-66
2022/11/18 16:46:00;;;;;;;57.15;22.73;;;;;;;-2.14;100.00;99414.61;1637498;87;21210;-67
2022/11/18 16:48:26;;;;;;;44.65;20.12;;;;;;;-2.08;100.00;99417.21;1637098;86;21153;-66
2022/11/18 16:51:11;;;;;;;38.40;18.55;;;;;;;-2.05;100.00;99421.08;1643084;86;22465;-67
2022/11/18 16:53:37;;;;;;;33.23;17.23;;;;;;;-2.02;100.00;99422.40;1626183;86;21217;-66
2022/11/18 16:56:04;;;;;;;34.27;16.60;;;;;;;-1.98;100.00;99415.11;1648132;86;21067;-67
2022/11/18 16:58:31;;;;;;;40.63;21.48;;;;;;;-1.97;100.00;99429.72;1650394;86;21399;-66
2022/11/18 17:00:58;;;;;;;34.00;16.93;;;;;;;-1.95;100.00;99426.72;1651681;85;21217;-67
2022/11/18 17:03:25;;;;;;;55.30;21.87;;;;;;;-1.94;100.00;99437.45;1641915;86;21679;-66
2022/11/18 17:05:51;;;;;;;37.45;17.35;;;;;;;-1.85;100.00;99437.05;1658972;84;22374;-65
2022/11/18 17:08:17;;;;;;;32.93;17.70;;;;;;;-1.86;100.00;99440.48;1672430;85;21093;-66
2022/11/18 17:10:44;;;;;;;44.40;19.45;;;;;;;-1.86;100.00;99439.19;1680147;83;21061;-66
2022/11/18 17:13:12;;;;;;;31.00;15.65;;;;;;;-1.84;100.00;99433.20;1692084;84;21528;-66
2022/11/18 17:15:38;;;;;;;36.55;18.87;;;;;;;-1.84;100.00;99427.15;1685073;84;21105;-65
2022/11/18 17:18:06;;;;;;;32.03;17.30;;;;;;;-1.81;100.00;99424.16;1683474;84;21296;-66
2022/11/18 17:20:34;;;;;;;31.10;16.52;;;;;;;-1.81;100.00;99422.87;1673759;84;21038;-66
2022/11/18 17:23:01;;;;;;;36.77;17.90;;;;;;;-1.79;100.00;99433.20;1682339;84;21037;-66
2022/11/18 17:25:28;;;;;;;28.77;14.65;;;;;;;-1.78;100.00;99424.16;1676778;84;21695;-65
2022/11/18 17:27:54;;;;;;;27.82;14.38;;;;;;;-1.77;100.00;99425.00;1687996;84;21052;-66
2022/11/18 17:30:21;;;;;;;30.32;15.55;;;;;;;-1.75;100.00;99424.58;1691088;84;21253;-66
2022/11/18 17:32:49;;;;;;;42.93;18.27;;;;;;;-1.72;100.00;99424.61;1686632;84;21085;-65
2022/11/18 17:35:16;;;;;;;61.23;21.65;;;;;;;-1.70;100.00;99428.06;1689788;84;21178;-66
2022/11/18 17:37:43;;;;;;;29.18;15.25;;;;;;;-1.71;100.00;99430.19;1687887;84;21230;-65
2022/11/18 17:40:11;;;;;;;28.55;14.85;;;;;;;-1.70;100.00;99430.64;1621094;87;21072;-65
2022/11/18 17:42:39;;;;;;;24.52;14.15;;;;;;;-1.73;100.00;99429.33;1603777;88;21260;-66
2022/11/18 17:45:07;;;;;;;26.42;14.55;;;;;;;-1.71;100.00;99441.80;1608703;88;21033;-66
2022/11/18 17:47:35;;;;;;;27.15;15.70;;;;;;;-1.70;100.00;99448.71;1612177;88;21087;-66
2022/11/18 17:50:02;;;;;;;27.25;14.83;;;;;;;-1.70;100.00;99443.11;1590613;89;21094;-66
2022/11/18 17:52:28;;;;;;;29.23;14.58;;;;;;;-1.71;100.00;99434.06;1615420;88;21613;-65
2022/11/18 17:54:55;;;;;;;32.20;15.20;;;;;;;-1.71;100.00;99443.09;1622262;88;21142;-66
2022/11/18 17:57:22;;;;;;;27.32;15.72;;;;;;;-1.83;100.00;99438.78;1620639;88;21073;-66
2022/11/18 17:59:49;;;;;;;26.70;14.47;;;;;;;-1.82;100.00;99426.73;1620563;87;21060;-64
2022/11/18 18:02:17;;;;;;;23.90;12.95;;;;;;;-1.81;100.00;99416.85;1621022;87;21048;-65
2022/11/18 18:04:44;;;;;;;24.52;14.78;;;;;;;-1.82;100.00;99414.67;1620730;87;21119;-65
2022/11/18 18:07:11;;;;;;;27.95;14.78;;;;;;;-1.80;100.00;99418.56;1622054;87;21208;-66
2022/11/18 18:09:38;;;;;;;61.70;33.73;;;;;;;-1.81;100.00;99414.27;1620334;85;21116;-64
2022/11/18 18:14:53;;;;;;;25.82;16.52;;;;;;;-1.82;100.00;99415.11;1644552;85;21113;-64
2022/11/18 18:17:23;;;;;;;25.30;14.03;;;;;;;-1.86;100.00;99410.80;1652974;85;21041;-66
2022/11/18 18:19:50;;;;;;;26.37;13.80;;;;;;;-1.86;100.00;99421.13;1636210;85;21082;-66
2022/11/18 18:22:17;;;;;;;23.00;12.18;;;;;;;-1.88;100.00;99430.61;1650076;85;21580;-65